createdAt,value
2019-04-23T00:00:21.940Z,51.40
2019-04-23T00:02:25.152Z,48.50
2019-04-23T00:03:32.697Z,49.15
2019-04-23T00:04:25.150Z,57.04
2019-04-23T00:05:35.294Z,48.34
2019-04-23T00:06:28.788Z,57.52
2019-04-23T00:07:35.685Z,52.53
2019-04-23T00:08:29.412Z,50.92
2019-04-23T00:09:27.670Z,53.33
2019-04-23T00:11:47.873Z,53.66
2019-04-23T00:12:38.103Z,61.71
2019-04-23T00:13:29.837Z,56.56
2019-04-23T00:14:27.279Z,54.30
2019-04-23T00:15:28.905Z,49.15
2019-04-23T00:17:37.351Z,55.11
2019-04-23T00:18:30.132Z,52.53
2019-04-23T00:19:33.009Z,49.15
2019-04-23T00:20:30.167Z,46.41
2019-04-23T00:21:26.661Z,51.24
2019-04-23T00:22:28.946Z,54.46
2019-04-23T00:23:34.994Z,48.18
2019-04-23T00:24:52.837Z,46.08
2019-04-23T00:26:36.662Z,47.86
2019-04-23T00:29:41.466Z,52.05
2019-04-23T00:30:36.269Z,55.59
2019-04-23T00:33:31.436Z,44.47
2019-04-23T00:34:33.357Z,41.89
2019-04-23T00:35:33.926Z,42.54
2019-04-23T00:36:45.968Z,50.27
2019-04-23T00:37:31.547Z,57.20
2019-04-23T00:38:35.186Z,56.88
2019-04-23T00:39:38.966Z,47.86
2019-04-23T00:40:35.713Z,51.08
2019-04-23T00:41:36.271Z,52.53
2019-04-23T00:42:37.521Z,65.42
2019-04-23T00:43:34.252Z,49.95
2019-04-23T00:44:40.404Z,52.85
2019-04-23T00:45:39.888Z,57.36
2019-04-23T00:46:34.979Z,50.76
2019-04-23T00:47:48.650Z,51.88
2019-04-23T00:48:35.041Z,48.50
2019-04-23T00:49:35.630Z,47.05
2019-04-23T00:50:44.735Z,48.82
2019-04-23T00:51:36.652Z,52.85
2019-04-23T00:52:32.153Z,53.98
2019-04-23T00:53:32.633Z,48.82
2019-04-23T00:54:41.102Z,48.18
2019-04-23T00:55:35.154Z,45.44
2019-04-23T00:57:38.852Z,52.69
2019-04-23T00:59:42.221Z,48.50
2019-04-23T01:00:44.929Z,47.21
2019-04-23T01:01:42.921Z,49.47
2019-04-23T01:02:37.010Z,49.95
2019-04-23T01:03:30.771Z,48.98
2019-04-23T01:04:46.061Z,60.59
2019-04-23T01:05:35.217Z,49.31
2019-04-23T01:06:37.877Z,53.82
2019-04-23T01:07:38.546Z,55.27
2019-04-23T01:08:35.341Z,50.92
2019-04-23T01:09:39.328Z,55.59
2019-04-23T01:10:34.573Z,53.82
2019-04-23T01:11:31.750Z,44.63
2019-04-23T01:14:46.225Z,49.63
2019-04-23T01:15:41.134Z,48.50
2019-04-23T01:16:39.323Z,54.62
2019-04-23T01:18:46.901Z,50.76
2019-04-23T01:19:39.938Z,49.63
2019-04-23T01:20:44.508Z,50.92
2019-04-23T01:21:19.907Z,47.05
2019-04-23T01:22:19.105Z,45.44
2019-04-23T01:23:20.608Z,49.15
2019-04-23T01:24:23.977Z,50.43
2019-04-23T01:25:28.669Z,54.14
2019-04-23T01:26:42.124Z,54.46
2019-04-23T01:27:51.558Z,53.50
2019-04-23T01:28:49.727Z,48.66
2019-04-23T01:29:52.461Z,45.60
2019-04-23T01:30:52.796Z,52.21
2019-04-23T01:31:47.968Z,60.75
2019-04-23T01:32:46.651Z,48.34
2019-04-23T01:33:53.225Z,48.50
2019-04-23T01:34:51.617Z,51.88
2019-04-23T01:35:51.205Z,48.66
2019-04-23T01:36:44.728Z,50.27
2019-04-23T01:37:58.401Z,53.33
2019-04-23T01:38:54.745Z,69.29
2019-04-23T01:39:45.409Z,50.43
2019-04-23T01:41:00.378Z,53.01
2019-04-23T01:41:53.255Z,73.15
2019-04-23T01:42:44.231Z,47.05
2019-04-23T01:43:46.121Z,54.30
2019-04-23T01:44:50.877Z,52.85
2019-04-23T01:45:44.361Z,50.60
2019-04-23T01:46:54.180Z,52.05
2019-04-23T01:47:50.052Z,51.08
2019-04-23T01:48:56.773Z,51.40
2019-04-23T01:50:03.121Z,46.73
2019-04-23T01:51:54.901Z,74.28
2019-04-23T01:52:55.088Z,54.14
2019-04-23T01:53:51.510Z,52.21
2019-04-23T01:54:52.351Z,53.82
2019-04-23T01:55:52.688Z,50.92
2019-04-23T01:56:47.376Z,51.56
2019-04-23T01:58:57.110Z,53.82
2019-04-23T01:59:55.211Z,48.50
2019-04-23T02:00:53.223Z,53.17
2019-04-23T02:01:55.676Z,59.62
2019-04-23T02:02:56.147Z,44.15
2019-04-23T02:03:56.077Z,60.42
2019-04-23T02:05:05.979Z,51.24
2019-04-23T02:05:56.862Z,56.07
2019-04-23T02:06:55.929Z,55.75
2019-04-23T02:08:56.780Z,55.27
2019-04-23T02:11:59.169Z,56.72
2019-04-23T02:13:01.573Z,50.27
2019-04-23T02:13:55.413Z,54.30
2019-04-23T02:14:59.424Z,54.79
2019-04-23T02:15:53.990Z,53.82
2019-04-23T02:16:55.459Z,53.82
2019-04-23T02:17:58.715Z,54.79
2019-04-23T02:18:56.716Z,48.82
2019-04-23T02:20:01.975Z,56.56
2019-04-23T02:21:00.670Z,51.56
2019-04-23T02:21:59.653Z,52.21
2019-04-23T02:23:06.207Z,49.79
2019-04-23T02:23:55.579Z,59.62
2019-04-23T02:25:02.017Z,50.11
2019-04-23T02:25:54.034Z,47.70
2019-04-23T02:26:57.551Z,82.34
2019-04-23T02:29:03.241Z,49.15
2019-04-23T02:32:01.551Z,60.59
2019-04-23T02:36:01.953Z,55.27
2019-04-23T02:37:15.657Z,71.54
2019-04-23T02:39:02.815Z,54.79
2019-04-23T02:42:19.155Z,58.81
2019-04-23T02:43:06.393Z,72.19
2019-04-23T02:45:02.184Z,57.20
2019-04-23T02:47:12.621Z,58.33
2019-04-23T02:49:11.999Z,56.24
2019-04-23T02:50:54.064Z,53.17
2019-04-23T02:53:20.803Z,54.79
2019-04-23T02:55:08.988Z,56.56
2019-04-23T02:56:12.317Z,62.20
2019-04-23T03:00:25.349Z,72.35
2019-04-23T03:02:24.401Z,56.07
2019-04-23T03:03:14.075Z,66.87
2019-04-23T03:04:10.361Z,65.42
2019-04-23T03:05:00.904Z,58.17
2019-04-23T03:06:05.887Z,59.78
2019-04-23T03:09:27.757Z,61.55
2019-04-23T03:10:08.171Z,72.99
2019-04-23T03:11:25.176Z,62.36
2019-04-23T03:13:21.673Z,61.55
2019-04-23T03:14:07.451Z,61.07
2019-04-23T03:18:28.569Z,58.97
2019-04-23T03:19:11.289Z,60.91
2019-04-23T03:20:15.117Z,60.91
2019-04-23T03:22:15.373Z,73.32
2019-04-23T03:23:27.576Z,62.20
2019-04-23T03:25:12.893Z,75.09
2019-04-23T03:26:25.795Z,62.04
2019-04-23T03:28:07.249Z,72.99
2019-04-23T03:33:06.960Z,61.55
2019-04-23T03:35:16.299Z,60.42
2019-04-23T03:36:10.715Z,86.69
2019-04-23T03:38:23.695Z,61.39
2019-04-23T03:39:05.751Z,59.94
2019-04-23T03:40:21.480Z,61.87
2019-04-23T03:41:32.019Z,61.39
2019-04-23T03:42:17.293Z,63.16
2019-04-23T03:43:14.522Z,60.59
2019-04-23T03:44:18.577Z,61.71
2019-04-23T03:45:44.502Z,69.29
2019-04-23T03:47:20.657Z,72.03
2019-04-23T03:48:26.217Z,59.30
2019-04-23T03:49:30.010Z,61.07
2019-04-23T03:50:25.240Z,58.01
2019-04-23T03:51:18.606Z,63.49
2019-04-23T03:52:20.750Z,67.84
2019-04-23T03:53:29.888Z,68.80
2019-04-23T03:55:18.546Z,60.42
2019-04-23T03:56:24.085Z,61.87
2019-04-23T03:57:18.250Z,61.23
2019-04-23T03:58:21.204Z,67.19
2019-04-23T03:59:26.555Z,70.74
2019-04-23T04:00:28.987Z,61.87
2019-04-23T04:01:21.625Z,64.13
2019-04-23T04:02:33.386Z,61.23
2019-04-23T04:03:42.184Z,61.39
2019-04-23T04:05:22.321Z,59.94
2019-04-23T04:06:24.369Z,59.94
2019-04-23T04:07:28.433Z,59.94
2019-04-23T04:08:20.273Z,65.58
2019-04-23T04:09:32.293Z,63.33
2019-04-23T04:10:16.032Z,60.75
2019-04-23T04:11:25.531Z,62.84
2019-04-23T04:12:30.050Z,69.93
2019-04-23T04:14:32.078Z,60.91
2019-04-23T04:15:43.578Z,61.07
2019-04-23T04:16:21.846Z,65.26
2019-04-23T04:17:19.676Z,62.04
2019-04-23T04:18:33.002Z,62.36
2019-04-23T04:20:32.625Z,59.62
2019-04-23T04:21:27.636Z,58.17
2019-04-23T04:22:29.333Z,61.07
2019-04-23T04:26:32.712Z,60.42
2019-04-23T04:27:24.557Z,60.75
2019-04-23T04:29:30.096Z,64.45
2019-04-23T04:30:29.581Z,68.32
2019-04-23T04:31:40.055Z,68.00
2019-04-23T04:32:24.667Z,63.16
2019-04-23T04:34:58.437Z,63.49
2019-04-23T04:35:27.297Z,67.84
2019-04-23T04:36:45.612Z,63.65
2019-04-23T04:39:30.381Z,62.20
2019-04-23T04:40:29.302Z,61.55
2019-04-23T04:45:47.285Z,62.04
2019-04-23T04:47:42.536Z,63.33
2019-04-23T04:49:36.892Z,62.68
2019-04-23T04:50:26.809Z,63.16
2019-04-23T04:53:47.021Z,63.97
2019-04-23T04:55:31.603Z,64.94
2019-04-23T04:56:29.460Z,65.58
2019-04-23T04:58:43.154Z,75.09
2019-04-23T05:00:58.298Z,71.06
2019-04-23T05:02:53.914Z,62.36
2019-04-23T05:03:36.159Z,66.87
2019-04-23T05:04:37.942Z,61.71
2019-04-23T05:06:01.328Z,63.49
2019-04-23T05:06:37.901Z,63.65
2019-04-23T05:08:39.694Z,60.75
2019-04-23T05:09:43.987Z,63.33
2019-04-23T05:12:27.590Z,65.10
2019-04-23T05:13:41.278Z,71.06
2019-04-23T05:14:33.703Z,69.13
2019-04-23T05:15:29.756Z,62.20
2019-04-23T05:16:27.509Z,62.52
2019-04-23T05:17:32.755Z,66.87
2019-04-23T05:18:31.099Z,60.59
2019-04-23T05:21:43.599Z,68.00
2019-04-23T05:22:30.879Z,67.03
2019-04-23T05:23:33.834Z,62.84
2019-04-23T05:24:28.748Z,72.03
2019-04-23T05:25:25.465Z,60.91
2019-04-23T05:26:27.035Z,61.39
2019-04-23T05:27:34.540Z,60.59
2019-04-23T05:28:31.599Z,60.59
2019-04-23T05:29:34.358Z,63.49
2019-04-23T05:30:34.913Z,63.81
2019-04-23T05:32:27.085Z,76.05
2019-04-23T05:33:28.914Z,62.52
2019-04-23T05:34:27.574Z,58.97
2019-04-23T05:35:56.167Z,61.55
2019-04-23T05:36:34.405Z,62.20
2019-04-23T05:37:42.306Z,63.97
2019-04-23T05:38:54.251Z,62.36
2019-04-23T05:40:40.357Z,68.64
2019-04-23T05:42:32.690Z,71.38
2019-04-23T05:43:38.102Z,73.96
2019-04-23T05:45:34.483Z,64.61
2019-04-23T05:46:33.781Z,63.49
2019-04-23T05:47:50.640Z,68.64
2019-04-23T05:48:34.824Z,66.06
2019-04-23T05:49:33.078Z,72.19
2019-04-23T05:50:44.436Z,59.78
2019-04-23T05:51:51.022Z,68.00
2019-04-23T05:52:36.716Z,68.00
2019-04-23T05:53:40.762Z,61.87
2019-04-23T05:54:37.061Z,60.42
2019-04-23T05:55:38.851Z,64.78
2019-04-23T05:56:32.377Z,65.90
2019-04-23T05:57:34.646Z,71.54
2019-04-23T05:58:38.417Z,69.93
2019-04-23T05:59:48.483Z,63.49
2019-04-23T06:00:41.599Z,64.29
2019-04-23T06:02:45.310Z,68.64
2019-04-23T06:03:42.062Z,62.20
2019-04-23T06:04:35.875Z,58.81
2019-04-23T06:05:41.541Z,58.17
2019-04-23T06:06:47.147Z,59.46
2019-04-23T06:08:39.124Z,62.84
2019-04-23T06:09:53.524Z,62.36
2019-04-23T06:10:40.743Z,61.55
2019-04-23T06:11:47.355Z,59.30
2019-04-23T06:12:37.063Z,69.45
2019-04-23T06:13:44.593Z,61.55
2019-04-23T06:14:43.768Z,67.84
2019-04-23T06:15:36.879Z,62.68
2019-04-23T06:16:41.835Z,61.87
2019-04-23T06:17:39.252Z,63.16
2019-04-23T06:18:44.726Z,66.71
2019-04-23T06:19:36.810Z,58.97
2019-04-23T06:20:45.409Z,59.46
2019-04-23T06:21:56.154Z,67.84
2019-04-23T06:22:45.972Z,68.64
2019-04-23T06:23:43.886Z,70.90
2019-04-23T06:24:41.510Z,67.03
2019-04-23T06:25:57.175Z,66.71
2019-04-23T06:27:39.728Z,58.97
2019-04-23T06:28:40.583Z,59.78
2019-04-23T06:29:45.021Z,70.09
2019-04-23T06:30:48.954Z,58.49
2019-04-23T06:31:44.081Z,63.16
2019-04-23T06:32:37.798Z,63.65
2019-04-23T06:33:41.305Z,67.51
2019-04-23T06:34:50.294Z,68.64
2019-04-23T06:35:45.204Z,71.87
2019-04-23T06:36:49.191Z,65.26
2019-04-23T06:38:06.290Z,73.32
2019-04-23T06:38:54.484Z,75.89
2019-04-23T06:39:41.528Z,71.06
2019-04-23T06:40:43.529Z,70.58
2019-04-23T06:41:44.527Z,82.50
2019-04-23T06:42:50.221Z,80.24
2019-04-23T06:43:49.697Z,72.35
2019-04-23T06:44:45.490Z,70.58
2019-04-23T06:46:01.343Z,84.27
2019-04-23T06:46:50.258Z,77.67
2019-04-23T06:47:42.914Z,76.38
2019-04-23T06:48:40.834Z,73.64
2019-04-23T06:49:44.221Z,75.57
2019-04-23T06:50:50.865Z,73.15
2019-04-23T06:51:53.311Z,79.60
2019-04-23T06:52:43.820Z,81.86
2019-04-23T06:53:43.783Z,60.59
2019-04-23T06:54:51.404Z,58.49
2019-04-23T06:55:49.202Z,65.74
2019-04-23T06:56:53.696Z,64.13
2019-04-23T06:57:48.157Z,78.31
2019-04-23T06:58:43.971Z,68.64
2019-04-23T06:59:59.187Z,64.94
2019-04-23T07:00:48.151Z,81.05
2019-04-23T07:01:56.293Z,82.98
2019-04-23T07:02:44.404Z,86.21
2019-04-23T07:03:55.743Z,78.31
2019-04-23T07:05:01.767Z,72.67
2019-04-23T07:05:53.477Z,71.87
2019-04-23T07:06:56.601Z,66.87
2019-04-23T07:08:02.765Z,63.81
2019-04-23T07:09:07.155Z,61.55
2019-04-23T07:09:50.520Z,62.04
2019-04-23T07:10:49.108Z,65.10
2019-04-23T07:12:52.292Z,70.74
2019-04-23T07:15:02.698Z,66.87
2019-04-23T07:15:53.363Z,77.50
2019-04-23T07:16:51.241Z,71.70
2019-04-23T07:17:47.766Z,67.51
2019-04-23T07:19:48.455Z,60.91
2019-04-23T07:20:50.536Z,61.71
2019-04-23T07:21:52.547Z,67.03
2019-04-23T07:23:03.504Z,66.87
2019-04-23T07:24:00.643Z,61.71
2019-04-23T07:24:52.758Z,61.55
2019-04-23T07:26:02.487Z,70.74
2019-04-23T07:26:45.006Z,73.64
2019-04-23T07:27:47.623Z,65.90
2019-04-23T07:28:55.607Z,72.35
2019-04-23T07:29:58.117Z,68.16
2019-04-23T07:31:00.446Z,64.45
2019-04-23T07:31:54.698Z,63.33
2019-04-23T07:33:57.589Z,77.34
2019-04-23T07:35:04.520Z,70.42
2019-04-23T07:35:51.790Z,68.96
2019-04-23T07:36:53.786Z,65.74
2019-04-23T07:39:01.577Z,68.64
2019-04-23T07:40:10.978Z,73.32
2019-04-23T07:41:00.166Z,64.94
2019-04-23T07:42:03.504Z,71.06
2019-04-23T07:42:58.342Z,75.73
2019-04-23T07:44:08.593Z,81.21
2019-04-23T07:44:59.438Z,72.51
2019-04-23T07:46:02.220Z,78.47
2019-04-23T07:47:11.736Z,61.71
2019-04-23T07:48:08.079Z,63.97
2019-04-23T07:48:56.386Z,73.15
2019-04-23T07:50:11.382Z,66.06
2019-04-23T07:50:55.039Z,69.13
2019-04-23T07:52:06.632Z,62.52
2019-04-23T07:53:05.545Z,63.49
2019-04-23T07:54:01.492Z,68.32
2019-04-23T07:55:02.542Z,71.87
2019-04-23T07:56:02.528Z,64.13
2019-04-23T07:57:09.078Z,74.12
2019-04-23T07:58:06.548Z,62.68
2019-04-23T07:59:07.427Z,76.70
2019-04-23T08:00:00.501Z,67.51
2019-04-23T08:02:03.462Z,69.45
2019-04-23T08:03:14.306Z,80.24
2019-04-23T08:04:04.609Z,78.63
2019-04-23T08:05:07.706Z,66.06
2019-04-23T08:05:55.340Z,66.23
2019-04-23T08:07:00.425Z,66.39
2019-04-23T08:08:03.879Z,67.35
2019-04-23T08:09:03.644Z,72.99
2019-04-23T08:10:02.402Z,61.23
2019-04-23T08:11:25.883Z,65.58
2019-04-23T08:12:03.054Z,65.74
2019-04-23T08:13:08.534Z,74.93
2019-04-23T08:16:08.850Z,82.18
2019-04-23T08:16:58.247Z,73.32
2019-04-23T08:18:07.098Z,67.35
2019-04-23T08:18:57.684Z,69.93
2019-04-23T08:21:02.473Z,67.68
2019-04-23T08:22:13.901Z,71.06
2019-04-23T08:23:03.901Z,74.28
2019-04-23T08:25:07.868Z,73.32
2019-04-23T08:26:15.588Z,73.48
2019-04-23T08:27:08.222Z,68.16
2019-04-23T08:28:08.015Z,65.42
2019-04-23T08:30:00.672Z,71.38
2019-04-23T08:31:09.858Z,68.48
2019-04-23T08:32:07.645Z,64.61
2019-04-23T08:33:04.256Z,77.18
2019-04-23T08:34:20.434Z,80.73
2019-04-23T08:36:12.188Z,72.51
2019-04-23T08:37:08.936Z,77.50
2019-04-23T08:38:18.589Z,75.09
2019-04-23T08:39:10.293Z,76.54
2019-04-23T08:40:11.999Z,66.06
2019-04-23T08:41:21.455Z,70.90
2019-04-23T08:42:27.065Z,79.12
2019-04-23T08:43:25.103Z,81.37
2019-04-23T08:44:18.293Z,73.15
2019-04-23T08:45:18.569Z,75.73
2019-04-23T08:46:15.293Z,64.61
2019-04-23T08:47:12.731Z,68.64
2019-04-23T08:49:13.678Z,72.83
2019-04-23T08:50:04.382Z,72.83
2019-04-23T08:51:23.754Z,73.96
2019-04-23T08:52:11.631Z,75.09
2019-04-23T08:53:23.326Z,68.48
2019-04-23T08:54:15.176Z,68.96
2019-04-23T08:55:11.146Z,77.67
2019-04-23T08:56:11.986Z,82.18
2019-04-23T08:58:14.384Z,83.95
2019-04-23T08:59:20.528Z,83.95
2019-04-23T09:00:10.766Z,79.60
2019-04-23T09:01:10.679Z,82.98
2019-04-23T09:02:22.888Z,75.41
2019-04-23T09:03:18.855Z,82.66
2019-04-23T09:04:09.283Z,101.35
2019-04-23T09:05:48.322Z,95.39
2019-04-23T09:06:10.770Z,85.40
2019-04-23T09:07:17.875Z,88.95
2019-04-23T09:08:15.573Z,99.74
2019-04-23T09:09:20.082Z,77.18
2019-04-23T09:11:30.887Z,63.00
2019-04-23T09:12:22.031Z,77.18
2019-04-23T09:13:40.165Z,71.54
2019-04-23T09:14:07.274Z,77.02
2019-04-23T09:16:13.646Z,73.32
2019-04-23T09:17:21.211Z,66.87
2019-04-23T09:18:15.889Z,74.12
2019-04-23T09:19:32.286Z,70.09
2019-04-23T09:20:27.703Z,72.51
2019-04-23T09:21:14.160Z,68.48
2019-04-23T09:22:22.001Z,71.38
2019-04-23T09:23:22.341Z,73.15
2019-04-23T09:24:13.256Z,80.89
2019-04-23T09:25:32.119Z,79.92
2019-04-23T09:27:23.248Z,76.22
2019-04-23T09:28:29.689Z,69.29
2019-04-23T09:29:19.139Z,62.52
2019-04-23T09:30:20.933Z,71.06
2019-04-23T09:31:31.589Z,69.29
2019-04-23T09:33:23.961Z,66.55
2019-04-23T09:34:20.806Z,74.60
2019-04-23T09:35:20.719Z,66.39
2019-04-23T09:36:22.471Z,72.51
2019-04-23T09:37:26.830Z,75.41
2019-04-23T09:38:19.882Z,71.06
2019-04-23T09:39:20.578Z,74.93
2019-04-23T09:40:32.111Z,67.03
2019-04-23T09:42:29.590Z,64.13
2019-04-23T09:43:22.851Z,73.64
2019-04-23T09:44:41.076Z,85.40
2019-04-23T09:45:23.382Z,74.93
2019-04-23T09:46:25.762Z,65.10
2019-04-23T09:47:24.527Z,67.84
2019-04-23T09:48:18.113Z,69.93
2019-04-23T09:50:26.350Z,64.61
2019-04-23T09:51:27.781Z,71.87
2019-04-23T09:52:27.598Z,77.83
2019-04-23T09:53:29.124Z,78.31
2019-04-23T09:54:23.650Z,73.64
2019-04-23T09:55:27.462Z,77.67
2019-04-23T09:56:23.631Z,72.35
2019-04-23T09:57:17.091Z,81.37
2019-04-23T09:58:15.135Z,69.93
2019-04-23T10:00:38.052Z,72.03
2019-04-23T10:01:32.779Z,79.28
2019-04-23T10:02:20.243Z,69.29
2019-04-23T10:03:09.103Z,79.76
2019-04-23T10:04:13.508Z,85.40
2019-04-23T10:05:11.078Z,72.99
2019-04-23T10:06:06.326Z,76.86
2019-04-23T10:07:12.545Z,76.22
2019-04-23T10:08:05.072Z,67.19
2019-04-23T10:09:04.040Z,69.61
2019-04-23T10:09:59.555Z,78.15
2019-04-23T10:10:57.513Z,77.67
2019-04-23T10:11:58.758Z,80.08
2019-04-23T10:12:58.115Z,82.98
2019-04-23T10:13:58.810Z,81.86
2019-04-23T10:15:09.446Z,81.69
2019-04-23T10:15:59.972Z,72.19
2019-04-23T10:16:58.101Z,71.87
2019-04-23T10:18:00.358Z,81.53
2019-04-23T10:19:01.030Z,66.39
2019-04-23T10:20:00.624Z,68.80
2019-04-23T10:20:59.531Z,71.06
2019-04-23T10:21:59.777Z,64.61
2019-04-23T10:23:00.168Z,67.35
2019-04-23T10:24:01.433Z,70.74
2019-04-23T10:25:01.198Z,66.87
2019-04-23T10:25:59.439Z,78.47
2019-04-23T10:27:00.000Z,66.71
2019-04-23T10:28:06.540Z,75.41
2019-04-23T10:29:02.393Z,70.74
2019-04-23T10:30:01.656Z,79.92
2019-04-23T10:31:02.734Z,71.06
2019-04-23T10:32:02.081Z,70.09
2019-04-23T10:33:01.400Z,68.64
2019-04-23T10:34:02.156Z,72.67
2019-04-23T10:35:15.132Z,72.19
2019-04-23T10:36:09.440Z,66.39
2019-04-23T10:37:05.054Z,74.60
2019-04-23T10:38:05.314Z,65.58
2019-04-23T10:39:14.199Z,58.81
2019-04-23T10:40:07.942Z,68.80
2019-04-23T10:41:04.537Z,67.03
2019-04-23T10:42:03.387Z,72.99
2019-04-23T10:43:05.391Z,71.70
2019-04-23T10:44:05.008Z,67.19
2019-04-23T10:45:20.736Z,66.71
2019-04-23T10:46:26.848Z,69.45
2019-04-23T10:47:32.323Z,76.22
2019-04-23T10:48:38.795Z,73.15
2019-04-23T10:50:44.468Z,66.55
2019-04-23T10:52:32.115Z,71.38
2019-04-23T10:53:37.922Z,58.81
2019-04-23T10:55:42.171Z,57.69
2019-04-23T10:56:42.655Z,70.42
2019-04-23T10:57:44.103Z,80.24
2019-04-23T10:58:35.296Z,65.26
2019-04-23T10:59:40.352Z,59.30
2019-04-23T11:00:37.522Z,72.19
2019-04-23T11:01:39.140Z,67.35
2019-04-23T11:03:48.994Z,71.06
2019-04-23T11:04:49.153Z,73.32
2019-04-23T11:05:52.239Z,67.19
2019-04-23T11:06:41.040Z,71.70
2019-04-23T11:08:38.615Z,70.42
2019-04-23T11:09:50.032Z,75.89
2019-04-23T11:10:40.927Z,74.60
2019-04-23T11:11:36.127Z,68.32
2019-04-23T11:12:42.231Z,72.99
2019-04-23T11:13:37.849Z,73.96
2019-04-23T11:14:46.212Z,64.13
2019-04-23T11:17:47.712Z,85.40
2019-04-23T11:18:53.578Z,67.03
2019-04-23T11:20:45.796Z,67.19
2019-04-23T11:21:43.076Z,76.54
2019-04-23T11:23:42.028Z,68.00
2019-04-23T11:25:36.772Z,80.24
2019-04-23T11:26:42.675Z,74.93
2019-04-23T11:28:02.818Z,76.86
2019-04-23T11:28:38.462Z,66.55
2019-04-23T11:29:48.609Z,80.57
2019-04-23T11:33:42.951Z,78.31
2019-04-23T11:36:01.861Z,58.17
2019-04-23T11:39:45.072Z,65.42
2019-04-23T11:40:37.080Z,63.16
2019-04-23T11:41:53.938Z,67.68
2019-04-23T11:42:42.650Z,75.25
2019-04-23T11:44:02.347Z,68.00
2019-04-23T11:44:49.499Z,80.41
2019-04-23T11:45:57.569Z,69.13
2019-04-23T11:46:57.446Z,69.29
2019-04-23T11:48:26.388Z,60.42
2019-04-23T11:48:59.496Z,63.65
2019-04-23T11:50:01.540Z,71.70
2019-04-23T11:51:20.507Z,64.13
2019-04-23T11:51:57.846Z,78.47
2019-04-23T11:52:48.588Z,64.78
2019-04-23T11:53:52.412Z,65.90
2019-04-23T11:54:45.365Z,66.23
2019-04-23T11:55:55.629Z,63.65
2019-04-23T11:57:14.119Z,69.13
2019-04-23T11:58:00.697Z,62.52
2019-04-23T11:58:46.097Z,64.61
2019-04-23T12:01:04.564Z,68.00
2019-04-23T12:01:52.807Z,82.82
2019-04-23T12:03:57.097Z,68.96
2019-04-23T12:05:00.921Z,73.48
2019-04-23T12:05:50.119Z,75.25
2019-04-23T12:06:52.447Z,61.23
2019-04-23T12:07:50.270Z,65.42
2019-04-23T12:08:51.053Z,73.48
2019-04-23T12:11:00.453Z,68.00
2019-04-23T12:12:46.001Z,71.70
2019-04-23T12:13:51.494Z,72.83
2019-04-23T12:14:47.215Z,67.35
2019-04-23T12:15:53.283Z,64.13
2019-04-23T12:17:05.551Z,57.85
2019-04-23T12:19:14.346Z,61.87
2019-04-23T12:19:55.723Z,75.25
2019-04-23T12:20:48.787Z,73.80
2019-04-23T12:23:59.496Z,66.87
2019-04-23T12:25:58.625Z,71.06
2019-04-23T12:27:42.175Z,66.71
2019-04-23T12:29:54.571Z,66.55
2019-04-23T12:30:50.593Z,67.68
2019-04-23T12:31:56.888Z,58.49
2019-04-23T12:33:11.594Z,56.72
2019-04-23T12:33:57.539Z,68.00
2019-04-23T12:35:50.395Z,59.30
2019-04-23T12:36:54.280Z,64.13
2019-04-23T12:37:56.234Z,64.78
2019-04-23T12:39:00.984Z,80.89
2019-04-23T12:40:03.040Z,64.29
2019-04-23T12:40:56.414Z,65.74
2019-04-23T12:42:01.981Z,58.01
2019-04-23T12:43:57.622Z,70.42
2019-04-23T12:45:06.937Z,81.05
2019-04-23T12:45:52.010Z,72.99
2019-04-23T12:47:05.615Z,62.20
2019-04-23T12:48:10.536Z,95.39
2019-04-23T12:49:06.971Z,68.00
2019-04-23T12:50:18.868Z,66.23
2019-04-23T12:51:18.256Z,75.41
2019-04-23T12:54:02.738Z,63.49
2019-04-23T12:55:08.524Z,76.54
2019-04-23T12:56:21.233Z,67.03
2019-04-23T12:57:09.164Z,77.18
2019-04-23T12:58:03.527Z,69.77
2019-04-23T12:58:56.360Z,64.13
2019-04-23T13:01:05.581Z,71.06
2019-04-23T13:02:08.135Z,65.10
2019-04-23T13:02:55.459Z,63.16
2019-04-23T13:03:50.589Z,64.13
2019-04-23T13:05:05.945Z,68.64
2019-04-23T13:05:55.487Z,65.42
2019-04-23T13:07:00.183Z,74.77
2019-04-23T13:07:58.512Z,74.12
2019-04-23T13:09:01.177Z,64.29
2019-04-23T13:09:58.158Z,59.46
2019-04-23T13:11:10.175Z,78.96
2019-04-23T13:12:12.570Z,78.63
2019-04-23T13:13:11.706Z,65.26
2019-04-23T13:14:08.569Z,69.29
2019-04-23T13:15:03.250Z,60.91
2019-04-23T13:16:05.913Z,71.70
2019-04-23T13:17:14.190Z,63.97
2019-04-23T13:18:04.759Z,57.85
2019-04-23T13:19:19.030Z,63.16
2019-04-23T13:21:15.760Z,74.77
2019-04-23T13:22:11.992Z,67.03
2019-04-23T13:24:04.331Z,76.54
2019-04-23T13:25:02.022Z,61.07
2019-04-23T13:25:59.656Z,71.06
2019-04-23T13:27:15.395Z,73.96
2019-04-23T13:28:08.468Z,69.13
2019-04-23T13:29:11.862Z,74.12
2019-04-23T13:30:14.398Z,65.58
2019-04-23T13:31:08.588Z,60.59
2019-04-23T13:32:05.436Z,58.01
2019-04-23T13:33:12.582Z,67.51
2019-04-23T13:34:08.990Z,69.45
2019-04-23T13:35:23.065Z,82.50
2019-04-23T13:36:29.023Z,78.63
2019-04-23T13:37:16.276Z,73.80
2019-04-23T13:39:12.010Z,66.39
2019-04-23T13:40:13.034Z,83.14
2019-04-23T13:41:21.734Z,78.15
2019-04-23T13:42:19.826Z,59.46
2019-04-23T13:43:14.914Z,69.45
2019-04-23T13:44:00.268Z,75.89
2019-04-23T13:45:17.550Z,77.83
2019-04-23T13:47:21.952Z,68.16
2019-04-23T13:49:10.907Z,67.19
2019-04-23T13:50:24.862Z,62.20
2019-04-23T13:51:14.213Z,76.05
2019-04-23T13:52:37.844Z,77.02
2019-04-23T13:53:20.979Z,64.94
2019-04-23T13:54:24.170Z,81.53
2019-04-23T13:56:09.156Z,73.96
2019-04-23T13:57:44.053Z,65.42
2019-04-23T13:58:14.683Z,68.80
2019-04-23T13:59:16.236Z,66.55
2019-04-23T14:00:20.902Z,71.54
2019-04-23T14:02:24.040Z,62.04
2019-04-23T14:03:13.951Z,67.19
2019-04-23T14:04:14.327Z,67.84
2019-04-23T14:05:12.699Z,65.74
2019-04-23T14:07:17.445Z,74.12
2019-04-23T14:08:28.499Z,68.16
2019-04-23T14:09:21.148Z,68.32
2019-04-23T14:10:18.223Z,76.22
2019-04-23T14:12:17.853Z,68.00
2019-04-23T14:13:42.360Z,74.77
2019-04-23T14:14:25.029Z,60.42
2019-04-23T14:15:22.690Z,72.99
2019-04-23T14:17:27.592Z,77.50
2019-04-23T14:19:28.336Z,62.52
2019-04-23T14:20:13.786Z,67.03
2019-04-23T14:21:25.217Z,69.93
2019-04-23T14:22:48.770Z,76.22
2019-04-23T14:23:27.635Z,77.83
2019-04-23T14:24:40.754Z,68.64
2019-04-23T14:26:23.246Z,81.21
2019-04-23T14:27:20.164Z,82.50
2019-04-23T14:28:21.899Z,83.95
2019-04-23T14:29:21.551Z,64.13
2019-04-23T14:30:29.896Z,75.25
2019-04-23T14:31:31.809Z,79.28
2019-04-23T14:32:22.273Z,85.72
2019-04-23T14:33:26.691Z,63.16
2019-04-23T14:34:15.919Z,71.54
2019-04-23T14:36:19.161Z,83.95
2019-04-23T14:37:17.218Z,63.33
2019-04-23T14:38:22.314Z,70.58
2019-04-23T14:39:26.615Z,59.14
2019-04-23T14:40:26.615Z,80.41
2019-04-23T14:42:30.935Z,65.26
2019-04-23T14:43:38.476Z,65.74
2019-04-23T14:46:34.645Z,76.38
2019-04-23T14:47:38.143Z,68.00
2019-04-23T14:48:38.622Z,79.76
2019-04-23T14:49:24.624Z,78.31
2019-04-23T14:51:34.216Z,64.29
2019-04-23T14:53:24.398Z,71.22
2019-04-23T14:54:35.871Z,82.50
2019-04-23T14:56:39.571Z,66.06
2019-04-23T14:59:16.405Z,74.93
2019-04-23T15:00:30.659Z,67.35
2019-04-23T15:02:25.702Z,70.25
2019-04-23T15:03:32.908Z,70.42
2019-04-23T15:04:27.214Z,70.25
2019-04-23T15:05:29.766Z,71.38
2019-04-23T15:06:43.696Z,68.32
2019-04-23T15:07:28.283Z,73.15
2019-04-23T15:08:30.354Z,69.29
2019-04-23T15:09:28.072Z,77.67
2019-04-23T15:10:34.764Z,68.32
2019-04-23T15:12:30.544Z,74.44
2019-04-23T15:13:28.265Z,79.76
2019-04-23T15:14:36.166Z,84.27
2019-04-23T15:15:27.074Z,64.78
2019-04-23T15:17:30.498Z,65.42
2019-04-23T15:18:35.367Z,68.00
2019-04-23T15:19:37.922Z,71.22
2019-04-23T15:20:30.297Z,78.79
2019-04-23T15:22:43.916Z,62.04
2019-04-23T15:25:31.725Z,62.68
2019-04-23T15:28:03.499Z,60.10
2019-04-23T15:28:09.353Z,65.26
2019-04-23T15:29:12.950Z,70.74
2019-04-23T15:30:24.833Z,69.93
2019-04-23T15:31:33.045Z,75.09
2019-04-23T15:32:35.094Z,74.93
2019-04-23T15:33:38.876Z,63.65
2019-04-23T15:34:48.914Z,65.26
2019-04-23T15:35:47.811Z,66.55
2019-04-23T15:38:16.149Z,63.97
2019-04-23T15:38:53.749Z,76.22
2019-04-23T15:39:40.585Z,66.23
2019-04-23T15:41:40.492Z,67.84
2019-04-23T15:42:32.320Z,73.64
2019-04-23T15:43:34.303Z,68.16
2019-04-23T15:44:27.983Z,80.41
2019-04-23T15:45:39.938Z,71.38
2019-04-23T15:46:39.305Z,74.77